sensor_id;sensor_type;location;lat;lon;timestamp;P1;durP1;ratioP1;P2;durP2;ratioP2
46122;SDS011;31856;-35.404;149.120;2022-10-16T00:00:40;4.88;;;0.88;;
46122;SDS011;31856;-35.404;149.120;2022-10-16T00:03:20;2.22;;;0.80;;
46122;SDS011;31856;-35.404;149.120;2022-10-16T00:05:58;5.13;;;0.95;;
46122;SDS011;31856;-35.404;149.120;2022-10-16T00:08:29;5.15;;;1.10;;
46122;SDS011;31856;-35.404;149.120;2022-10-16T00:11:00;5.55;;;0.88;;
46122;SDS011;31856;-35.404;149.120;2022-10-16T00:13:31;3.85;;;0.90;;
46122;SDS011;31856;-35.404;149.120;2022-10-16T00:16:03;4.40;;;0.98;;
46122;SDS011;31856;-35.404;149.120;2022-10-16T00:18:34;3.03;;;0.80;;
46122;SDS011;31856;-35.404;149.120;2022-10-16T00:21:13;2.40;;;0.70;;
46122;SDS011;31856;-35.404;149.120;2022-10-16T00:23:43;5.32;;;1.15;;
46122;SDS011;31856;-35.404;149.120;2022-10-16T00:26:15;2.92;;;0.88;;
46122;SDS011;31856;-35.404;149.120;2022-10-16T00:28:46;2.15;;;0.80;;
46122;SDS011;31856;-35.404;149.120;2022-10-16T00:31:17;3.72;;;0.77;;
46122;SDS011;31856;-35.404;149.120;2022-10-16T00:33:49;3.97;;;0.95;;
46122;SDS011;31856;-35.404;149.120;2022-10-16T00:36:23;1.95;;;0.77;;
46122;SDS011;31856;-35.404;149.120;2022-10-16T00:38:54;2.63;;;0.70;;
46122;SDS011;31856;-35.404;149.120;2022-10-16T00:41:27;2.35;;;0.60;;
46122;SDS011;31856;-35.404;149.120;2022-10-16T00:43:59;2.17;;;0.77;;
46122;SDS011;31856;-35.404;149.120;2022-10-16T00:46:37;2.33;;;0.70;;
46122;SDS011;31856;-35.404;149.120;2022-10-16T02:26:53;3.08;;;0.60;;
46122;SDS011;31856;-35.404;149.120;2022-10-16T02:29:25;3.70;;;0.70;;
46122;SDS011;31856;-35.404;149.120;2022-10-16T02:31:59;1.33;;;0.55;;
46122;SDS011;31856;-35.404;149.120;2022-10-16T02:34:32;1.52;;;0.60;;
46122;SDS011;31856;-35.404;149.120;2022-10-16T02:37:03;2.78;;;0.68;;
46122;SDS011;31856;-35.404;149.120;2022-10-16T02:39:35;1.95;;;0.82;;
46122;SDS011;31856;-35.404;149.120;2022-10-16T02:42:11;1.70;;;0.70;;
46122;SDS011;31856;-35.404;149.120;2022-10-16T02:44:42;2.30;;;1.23;;
46122;SDS011;31856;-35.404;149.120;2022-10-16T02:47:12;5.32;;;0.90;;
46122;SDS011;31856;-35.404;149.120;2022-10-16T02:49:42;4.07;;;0.90;;
46122;SDS011;31856;-35.404;149.120;2022-10-16T02:52:13;2.05;;;0.63;;
46122;SDS011;31856;-35.404;149.120;2022-10-16T02:54:46;2.67;;;0.80;;
46122;SDS011;31856;-35.404;149.120;2022-10-16T02:57:16;1.52;;;0.55;;
46122;SDS011;31856;-35.404;149.120;2022-10-16T02:59:46;2.45;;;0.60;;
46122;SDS011;31856;-35.404;149.120;2022-10-16T03:02:16;2.63;;;0.77;;
46122;SDS011;31856;-35.404;149.120;2022-10-16T03:04:46;1.08;;;0.60;;
46122;SDS011;31856;-35.404;149.120;2022-10-16T03:07:16;3.38;;;0.70;;
46122;SDS011;31856;-35.404;149.120;2022-10-16T03:09:46;2.15;;;0.80;;
46122;SDS011;31856;-35.404;149.120;2022-10-16T03:12:16;3.22;;;0.80;;
46122;SDS011;31856;-35.404;149.120;2022-10-16T03:14:46;3.30;;;0.70;;
46122;SDS011;31856;-35.404;149.120;2022-10-16T03:17:16;1.33;;;0.63;;
46122;SDS011;31856;-35.404;149.120;2022-10-16T03:19:49;3.03;;;0.98;;
46122;SDS011;31856;-35.404;149.120;2022-10-16T03:22:19;3.90;;;0.88;;
46122;SDS011;31856;-35.404;149.120;2022-10-16T03:24:49;2.03;;;0.65;;
46122;SDS011;31856;-35.404;149.120;2022-10-16T03:27:19;1.25;;;0.50;;
46122;SDS011;31856;-35.404;149.120;2022-10-16T03:29:50;4.72;;;0.70;;
46122;SDS011;31856;-35.404;149.120;2022-10-16T03:32:20;3.50;;;0.80;;
46122;SDS011;31856;-35.404;149.120;2022-10-16T03:34:50;3.50;;;0.85;;
46122;SDS011;31856;-35.404;149.120;2022-10-16T03:37:22;3.53;;;0.75;;
46122;SDS011;31856;-35.404;149.120;2022-10-16T03:39:53;3.28;;;0.73;;
46122;SDS011;31856;-35.404;149.120;2022-10-16T03:42:23;2.20;;;0.70;;
46122;SDS011;31856;-35.404;149.120;2022-10-16T03:44:53;3.17;;;0.60;;
46122;SDS011;31856;-35.404;149.120;2022-10-16T03:47:23;1.90;;;0.85;;
46122;SDS011;31856;-35.404;149.120;2022-10-16T03:49:54;3.28;;;0.70;;
46122;SDS011;31856;-35.404;149.120;2022-10-16T03:52:26;1.33;;;0.52;;
46122;SDS011;31856;-35.404;149.120;2022-10-16T03:58:09;2.60;;;0.70;;
46122;SDS011;31856;-35.404;149.120;2022-10-16T04:07:26;1.38;;;0.60;;
46122;SDS011;31856;-35.404;149.120;2022-10-16T04:10:23;3.63;;;0.93;;
46122;SDS011;31856;-35.404;149.120;2022-10-16T06:56:38;3.67;;;0.77;;
46122;SDS011;31856;-35.404;149.120;2022-10-16T06:59:15;1.75;;;0.50;;
46122;SDS011;31856;-35.404;149.120;2022-10-16T07:02:08;2.40;;;0.90;;
46122;SDS011;31856;-35.404;149.120;2022-10-16T07:04:39;2.58;;;0.73;;
46122;SDS011;31856;-35.404;149.120;2022-10-16T07:10:15;1.10;;;0.47;;
46122;SDS011;31856;-35.404;149.120;2022-10-16T07:12:54;1.05;;;0.82;;
46122;SDS011;31856;-35.404;149.120;2022-10-16T07:15:24;3.42;;;0.90;;
46122;SDS011;31856;-35.404;149.120;2022-10-16T07:25:55;1.77;;;0.60;;
46122;SDS011;31856;-35.404;149.120;2022-10-16T07:28:25;7.20;;;0.70;;
46122;SDS011;31856;-35.404;149.120;2022-10-16T07:31:02;1.80;;;0.80;;
46122;SDS011;31856;-35.404;149.120;2022-10-16T07:33:33;3.00;;;0.73;;
46122;SDS011;31856;-35.404;149.120;2022-10-16T07:36:03;2.13;;;0.70;;
46122;SDS011;31856;-35.404;149.120;2022-10-16T07:38:38;2.45;;;0.60;;
46122;SDS011;31856;-35.404;149.120;2022-10-16T07:41:10;1.63;;;0.52;;
46122;SDS011;31856;-35.404;149.120;2022-10-16T07:43:40;2.58;;;0.85;;
46122;SDS011;31856;-35.404;149.120;2022-10-16T07:46:15;3.03;;;0.75;;
46122;SDS011;31856;-35.404;149.120;2022-10-16T07:48:46;2.55;;;0.60;;
46122;SDS011;31856;-35.404;149.120;2022-10-16T07:51:17;1.95;;;0.75;;
46122;SDS011;31856;-35.404;149.120;2022-10-16T07:53:48;1.80;;;0.70;;
46122;SDS011;31856;-35.404;149.120;2022-10-16T07:56:20;2.70;;;0.90;;
46122;SDS011;31856;-35.404;149.120;2022-10-16T07:58:50;2.67;;;0.90;;
46122;SDS011;31856;-35.404;149.120;2022-10-16T08:01:21;1.33;;;0.65;;
46122;SDS011;31856;-35.404;149.120;2022-10-16T08:03:51;3.90;;;0.70;;
46122;SDS011;31856;-35.404;149.120;2022-10-16T08:06:21;1.45;;;0.60;;
46122;SDS011;31856;-35.404;149.120;2022-10-16T08:12:07;2.80;;;0.80;;
46122;SDS011;31856;-35.404;149.120;2022-10-16T08:14:41;2.92;;;0.60;;
46122;SDS011;31856;-35.404;149.120;2022-10-16T08:17:13;2.28;;;0.60;;
46122;SDS011;31856;-35.404;149.120;2022-10-16T08:19:47;2.47;;;0.60;;
46122;SDS011;31856;-35.404;149.120;2022-10-16T08:22:17;3.53;;;0.70;;
46122;SDS011;31856;-35.404;149.120;2022-10-16T08:47:41;2.90;;;0.80;;
46122;SDS011;31856;-35.404;149.120;2022-10-16T08:50:13;2.10;;;0.80;;
46122;SDS011;31856;-35.404;149.120;2022-10-16T08:52:45;2.47;;;0.93;;
46122;SDS011;31856;-35.404;149.120;2022-10-16T08:58:13;7.57;;;2.40;;
46122;SDS011;31856;-35.404;149.120;2022-10-16T09:00:48;9.23;;;3.15;;
46122;SDS011;31856;-35.404;149.120;2022-10-16T09:06:10;4.13;;;1.50;;
46122;SDS011;31856;-35.404;149.120;2022-10-16T09:20:26;1.33;;;0.57;;
46122;SDS011;31856;-35.404;149.120;2022-10-16T09:22:46;1.90;;;0.60;;
46122;SDS011;31856;-35.404;149.120;2022-10-16T09:25:20;0.93;;;0.50;;
46122;SDS011;31856;-35.404;149.120;2022-10-16T09:27:52;1.25;;;0.60;;
46122;SDS011;31856;-35.404;149.120;2022-10-16T09:30:23;1.33;;;0.60;;
46122;SDS011;31856;-35.404;149.120;2022-10-16T09:32:57;0.73;;;0.50;;
46122;SDS011;31856;-35.404;149.120;2022-10-16T09:35:50;1.08;;;0.60;;
46122;SDS011;31856;-35.404;149.120;2022-10-16T09:38:25;0.93;;;0.60;;
46122;SDS011;31856;-35.404;149.120;2022-10-16T09:41:03;1.58;;;0.65;;
46122;SDS011;31856;-35.404;149.120;2022-10-16T09:48:51;1.52;;;0.75;;
46122;SDS011;31856;-35.404;149.120;2022-10-16T09:54:00;2.42;;;0.73;;
46122;SDS011;31856;-35.404;149.120;2022-10-16T09:56:31;0.90;;;0.50;;
46122;SDS011;31856;-35.404;149.120;2022-10-16T09:59:23;2.45;;;0.60;;
46122;SDS011;31856;-35.404;149.120;2022-10-16T10:01:53;1.15;;;0.60;;
46122;SDS011;31856;-35.404;149.120;2022-10-16T10:04:23;1.85;;;0.63;;
46122;SDS011;31856;-35.404;149.120;2022-10-16T10:06:55;0.90;;;0.60;;
46122;SDS011;31856;-35.404;149.120;2022-10-16T10:11:58;1.88;;;0.70;;
46122;SDS011;31856;-35.404;149.120;2022-10-16T10:14:39;1.23;;;0.57;;
46122;SDS011;31856;-35.404;149.120;2022-10-16T10:19:45;1.08;;;0.55;;
46122;SDS011;31856;-35.404;149.120;2022-10-16T10:24:55;1.75;;;0.60;;
46122;SDS011;31856;-35.404;149.120;2022-10-16T10:27:31;0.82;;;0.50;;
46122;SDS011;31856;-35.404;149.120;2022-10-16T10:30:06;0.82;;;0.60;;
46122;SDS011;31856;-35.404;149.120;2022-10-16T10:37:48;0.57;;;0.45;;
46122;SDS011;31856;-35.404;149.120;2022-10-16T10:40:24;1.35;;;0.60;;
46122;SDS011;31856;-35.404;149.120;2022-10-16T10:45:43;0.70;;;0.40;;
46122;SDS011;31856;-35.404;149.120;2022-10-16T10:51:11;1.45;;;0.70;;
46122;SDS011;31856;-35.404;149.120;2022-10-16T10:56:34;0.63;;;0.40;;
46122;SDS011;31856;-35.404;149.120;2022-10-16T11:04:41;1.05;;;0.50;;
46122;SDS011;31856;-35.404;149.120;2022-10-16T11:07:05;0.90;;;0.50;;
46122;SDS011;31856;-35.404;149.120;2022-10-16T11:09:45;1.98;;;0.50;;
46122;SDS011;31856;-35.404;149.120;2022-10-16T11:14:54;0.85;;;0.50;;
46122;SDS011;31856;-35.404;149.120;2022-10-16T11:17:30;0.70;;;0.50;;
46122;SDS011;31856;-35.404;149.120;2022-10-16T11:22:36;1.23;;;0.60;;
46122;SDS011;31856;-35.404;149.120;2022-10-16T11:25:18;1.33;;;0.60;;
46122;SDS011;31856;-35.404;149.120;2022-10-16T11:30:29;1.63;;;0.60;;
46122;SDS011;31856;-35.404;149.120;2022-10-16T11:41:04;1.70;;;0.65;;
46122;SDS011;31856;-35.404;149.120;2022-10-16T11:43:41;1.98;;;0.57;;
46122;SDS011;31856;-35.404;149.120;2022-10-16T11:46:17;0.95;;;0.60;;
46122;SDS011;31856;-35.404;149.120;2022-10-16T11:48:50;1.63;;;0.70;;
46122;SDS011;31856;-35.404;149.120;2022-10-16T11:51:36;2.13;;;0.85;;
46122;SDS011;31856;-35.404;149.120;2022-10-16T12:32:24;0.70;;;0.40;;
46122;SDS011;31856;-35.404;149.120;2022-10-16T12:35:18;1.58;;;0.40;;
46122;SDS011;31856;-35.404;149.120;2022-10-16T12:37:49;0.60;;;0.40;;
46122;SDS011;31856;-35.404;149.120;2022-10-16T12:40:29;0.57;;;0.47;;
46122;SDS011;31856;-35.404;149.120;2022-10-16T12:43:10;0.95;;;0.40;;
46122;SDS011;31856;-35.404;149.120;2022-10-16T12:45:40;0.88;;;0.52;;
46122;SDS011;31856;-35.404;149.120;2022-10-16T12:48:20;0.55;;;0.40;;
46122;SDS011;31856;-35.404;149.120;2022-10-16T12:53:41;0.50;;;0.40;;
46122;SDS011;31856;-35.404;149.120;2022-10-16T12:56:17;0.68;;;0.40;;
46122;SDS011;31856;-35.404;149.120;2022-10-16T13:07:10;2.42;;;0.70;;
46122;SDS011;31856;-35.404;149.120;2022-10-16T13:13:22;0.63;;;0.50;;
46122;SDS011;31856;-35.404;149.120;2022-10-16T13:15:35;1.30;;;0.93;;
46122;SDS011;31856;-35.404;149.120;2022-10-16T13:18:17;0.63;;;0.50;;
46122;SDS011;31856;-35.404;149.120;2022-10-16T13:20:55;1.30;;;0.50;;
46122;SDS011;31856;-35.404;149.120;2022-10-16T13:23:48;0.90;;;0.43;;
46122;SDS011;31856;-35.404;149.120;2022-10-16T13:27:07;1.38;;;0.50;;
46122;SDS011;31856;-35.404;149.120;2022-10-16T13:29:11;1.38;;;0.52;;
46122;SDS011;31856;-35.404;149.120;2022-10-16T13:56:36;0.57;;;0.50;;
46122;SDS011;31856;-35.404;149.120;2022-10-16T13:59:06;0.40;;;0.40;;
46122;SDS011;31856;-35.404;149.120;2022-10-16T14:01:55;0.60;;;0.50;;
46122;SDS011;31856;-35.404;149.120;2022-10-16T14:04:27;0.50;;;0.40;;
46122;SDS011;31856;-35.404;149.120;2022-10-16T14:06:59;0.50;;;0.40;;
46122;SDS011;31856;-35.404;149.120;2022-10-16T14:09:29;0.68;;;0.50;;
46122;SDS011;31856;-35.404;149.120;2022-10-16T14:12:07;0.40;;;0.40;;
46122;SDS011;31856;-35.404;149.120;2022-10-16T14:14:48;1.90;;;0.50;;
46122;SDS011;31856;-35.404;149.120;2022-10-16T14:17:28;0.50;;;0.40;;
46122;SDS011;31856;-35.404;149.120;2022-10-16T14:20:02;0.55;;;0.55;;
46122;SDS011;31856;-35.404;149.120;2022-10-16T14:22:34;0.55;;;0.40;;
46122;SDS011;31856;-35.404;149.120;2022-10-16T14:28:16;1.10;;;0.40;;
46122;SDS011;31856;-35.404;149.120;2022-10-16T14:30:58;0.50;;;0.40;;
46122;SDS011;31856;-35.404;149.120;2022-10-16T14:36:00;1.25;;;0.40;;
46122;SDS011;31856;-35.404;149.120;2022-10-16T14:38:30;0.55;;;0.40;;
46122;SDS011;31856;-35.404;149.120;2022-10-16T14:41:01;0.40;;;0.40;;
46122;SDS011;31856;-35.404;149.120;2022-10-16T14:43:33;0.52;;;0.52;;
46122;SDS011;31856;-35.404;149.120;2022-10-16T14:46:06;0.70;;;0.55;;
46122;SDS011;31856;-35.404;149.120;2022-10-16T14:48:42;0.33;;;0.30;;
46122;SDS011;31856;-35.404;149.120;2022-10-16T14:51:16;0.35;;;0.32;;
46122;SDS011;31856;-35.404;149.120;2022-10-16T14:53:46;0.30;;;0.30;;
46122;SDS011;31856;-35.404;149.120;2022-10-16T15:06:26;0.80;;;0.40;;
46122;SDS011;31856;-35.404;149.120;2022-10-16T15:08:56;0.30;;;0.30;;
46122;SDS011;31856;-35.404;149.120;2022-10-16T15:11:26;0.35;;;0.30;;
46122;SDS011;31856;-35.404;149.120;2022-10-16T15:13:56;0.38;;;0.38;;
46122;SDS011;31856;-35.404;149.120;2022-10-16T15:16:27;0.30;;;0.30;;
46122;SDS011;31856;-35.404;149.120;2022-10-16T15:18:57;0.45;;;0.30;;
46122;SDS011;31856;-35.404;149.120;2022-10-16T15:21:28;0.43;;;0.30;;
46122;SDS011;31856;-35.404;149.120;2022-10-16T15:23:59;0.30;;;0.30;;
46122;SDS011;31856;-35.404;149.120;2022-10-16T15:26:30;0.38;;;0.30;;
46122;SDS011;31856;-35.404;149.120;2022-10-16T15:29:00;0.40;;;0.40;;
46122;SDS011;31856;-35.404;149.120;2022-10-16T15:31:31;0.70;;;0.40;;
46122;SDS011;31856;-35.404;149.120;2022-10-16T15:34:01;0.50;;;0.30;;
46122;SDS011;31856;-35.404;149.120;2022-10-16T15:36:33;0.52;;;0.40;;
46122;SDS011;31856;-35.404;149.120;2022-10-16T15:39:26;0.50;;;0.30;;
46122;SDS011;31856;-35.404;149.120;2022-10-16T15:41:55;0.30;;;0.30;;
46122;SDS011;31856;-35.404;149.120;2022-10-16T15:44:25;0.40;;;0.40;;
46122;SDS011;31856;-35.404;149.120;2022-10-16T15:46:58;0.38;;;0.30;;
46122;SDS011;31856;-35.404;149.120;2022-10-16T15:49:30;0.40;;;0.38;;
46122;SDS011;31856;-35.404;149.120;2022-10-16T15:52:00;0.40;;;0.30;;
46122;SDS011;31856;-35.404;149.120;2022-10-16T15:54:31;0.30;;;0.30;;
46122;SDS011;31856;-35.404;149.120;2022-10-16T15:57:01;0.30;;;0.30;;
46122;SDS011;31856;-35.404;149.120;2022-10-16T15:59:31;0.30;;;0.30;;
46122;SDS011;31856;-35.404;149.120;2022-10-16T16:02:01;0.30;;;0.30;;
46122;SDS011;31856;-35.404;149.120;2022-10-16T16:04:31;0.30;;;0.30;;
46122;SDS011;31856;-35.404;149.120;2022-10-16T16:07:10;0.30;;;0.30;;
46122;SDS011;31856;-35.404;149.120;2022-10-16T16:09:40;1.23;;;0.30;;
46122;SDS011;31856;-35.404;149.120;2022-10-16T16:12:15;0.30;;;0.30;;
46122;SDS011;31856;-35.404;149.120;2022-10-16T16:14:45;0.60;;;0.40;;
46122;SDS011;31856;-35.404;149.120;2022-10-16T16:17:17;0.22;;;0.22;;
46122;SDS011;31856;-35.404;149.120;2022-10-16T16:19:47;0.30;;;0.30;;
46122;SDS011;31856;-35.404;149.120;2022-10-16T16:22:17;0.35;;;0.32;;
46122;SDS011;31856;-35.404;149.120;2022-10-16T16:24:47;0.30;;;0.30;;
46122;SDS011;31856;-35.404;149.120;2022-10-16T16:27:16;0.30;;;0.30;;
46122;SDS011;31856;-35.404;149.120;2022-10-16T16:29:48;1.60;;;0.38;;
46122;SDS011;31856;-35.404;149.120;2022-10-16T16:32:17;0.90;;;0.40;;
46122;SDS011;31856;-35.404;149.120;2022-10-16T16:34:47;0.30;;;0.30;;
46122;SDS011;31856;-35.404;149.120;2022-10-16T16:37:17;0.30;;;0.30;;
46122;SDS011;31856;-35.404;149.120;2022-10-16T16:39:47;0.50;;;0.50;;
46122;SDS011;31856;-35.404;149.120;2022-10-16T16:42:17;0.50;;;0.50;;
46122;SDS011;31856;-35.404;149.120;2022-10-16T16:44:49;0.30;;;0.30;;
46122;SDS011;31856;-35.404;149.120;2022-10-16T16:47:19;0.30;;;0.30;;
46122;SDS011;31856;-35.404;149.120;2022-10-16T16:49:49;0.20;;;0.20;;
46122;SDS011;31856;-35.404;149.120;2022-10-16T16:52:19;0.30;;;0.30;;
46122;SDS011;31856;-35.404;149.120;2022-10-16T16:54:50;0.30;;;0.30;;
46122;SDS011;31856;-35.404;149.120;2022-10-16T16:57:20;0.30;;;0.30;;
46122;SDS011;31856;-35.404;149.120;2022-10-16T16:59:51;0.30;;;0.30;;
46122;SDS011;31856;-35.404;149.120;2022-10-16T17:02:21;0.30;;;0.30;;
46122;SDS011;31856;-35.404;149.120;2022-10-16T17:04:51;0.30;;;0.30;;
46122;SDS011;31856;-35.404;149.120;2022-10-16T17:07:22;0.30;;;0.30;;
46122;SDS011;31856;-35.404;149.120;2022-10-16T17:09:55;0.30;;;0.30;;
46122;SDS011;31856;-35.404;149.120;2022-10-16T17:12:26;0.30;;;0.30;;
46122;SDS011;31856;-35.404;149.120;2022-10-16T17:14:56;0.30;;;0.30;;
46122;SDS011;31856;-35.404;149.120;2022-10-16T17:17:26;0.30;;;0.30;;
46122;SDS011;31856;-35.404;149.120;2022-10-16T17:19:57;0.40;;;0.30;;
46122;SDS011;31856;-35.404;149.120;2022-10-16T17:22:27;0.30;;;0.30;;
46122;SDS011;31856;-35.404;149.120;2022-10-16T17:24:58;0.30;;;0.30;;
46122;SDS011;31856;-35.404;149.120;2022-10-16T17:27:30;0.40;;;0.40;;
46122;SDS011;31856;-35.404;149.120;2022-10-16T17:30:02;0.30;;;0.30;;
46122;SDS011;31856;-35.404;149.120;2022-10-16T17:32:33;0.50;;;0.30;;
46122;SDS011;31856;-35.404;149.120;2022-10-16T17:35:04;0.30;;;0.30;;
46122;SDS011;31856;-35.404;149.120;2022-10-16T17:37:34;0.30;;;0.30;;
46122;SDS011;31856;-35.404;149.120;2022-10-16T17:40:04;0.30;;;0.30;;
46122;SDS011;31856;-35.404;149.120;2022-10-16T17:42:35;0.50;;;0.30;;
46122;SDS011;31856;-35.404;149.120;2022-10-16T17:45:05;0.80;;;0.30;;
46122;SDS011;31856;-35.404;149.120;2022-10-16T17:47:35;0.38;;;0.30;;
46122;SDS011;31856;-35.404;149.120;2022-10-16T17:50:05;0.40;;;0.40;;
46122;SDS011;31856;-35.404;149.120;2022-10-16T17:52:41;0.40;;;0.30;;
46122;SDS011;31856;-35.404;149.120;2022-10-16T17:55:11;0.30;;;0.30;;
46122;SDS011;31856;-35.404;149.120;2022-10-16T18:00:07;0.30;;;0.30;;
46122;SDS011;31856;-35.404;149.120;2022-10-16T18:02:38;0.40;;;0.30;;
46122;SDS011;31856;-35.404;149.120;2022-10-16T18:05:09;0.30;;;0.30;;
46122;SDS011;31856;-35.404;149.120;2022-10-16T18:07:40;0.30;;;0.30;;
46122;SDS011;31856;-35.404;149.120;2022-10-16T18:10:12;0.30;;;0.30;;
46122;SDS011;31856;-35.404;149.120;2022-10-16T18:12:46;0.30;;;0.30;;
46122;SDS011;31856;-35.404;149.120;2022-10-16T18:15:17;0.30;;;0.30;;
46122;SDS011;31856;-35.404;149.120;2022-10-16T18:17:47;0.50;;;0.40;;
46122;SDS011;31856;-35.404;149.120;2022-10-16T18:20:18;0.30;;;0.30;;
46122;SDS011;31856;-35.404;149.120;2022-10-16T18:22:48;0.60;;;0.30;;
46122;SDS011;31856;-35.404;149.120;2022-10-16T18:25:18;0.32;;;0.32;;
46122;SDS011;31856;-35.404;149.120;2022-10-16T18:27:48;0.40;;;0.40;;
46122;SDS011;31856;-35.404;149.120;2022-10-16T18:30:20;0.30;;;0.30;;
46122;SDS011;31856;-35.404;149.120;2022-10-16T18:32:50;0.43;;;0.30;;
46122;SDS011;31856;-35.404;149.120;2022-10-16T18:35:21;0.40;;;0.30;;
46122;SDS011;31856;-35.404;149.120;2022-10-16T18:37:52;0.30;;;0.30;;
46122;SDS011;31856;-35.404;149.120;2022-10-16T18:40:27;0.30;;;0.30;;
46122;SDS011;31856;-35.404;149.120;2022-10-16T18:42:57;0.30;;;0.30;;
46122;SDS011;31856;-35.404;149.120;2022-10-16T18:45:27;0.47;;;0.40;;
46122;SDS011;31856;-35.404;149.120;2022-10-16T18:47:58;0.30;;;0.30;;
46122;SDS011;31856;-35.404;149.120;2022-10-16T18:50:28;0.65;;;0.50;;
46122;SDS011;31856;-35.404;149.120;2022-10-16T18:52:58;0.47;;;0.40;;
46122;SDS011;31856;-35.404;149.120;2022-10-16T18:55:28;0.88;;;0.40;;
46122;SDS011;31856;-35.404;149.120;2022-10-16T18:57:59;0.40;;;0.40;;
46122;SDS011;31856;-35.404;149.120;2022-10-16T19:00:29;0.60;;;0.40;;
46122;SDS011;31856;-35.404;149.120;2022-10-16T19:02:59;0.73;;;0.40;;
46122;SDS011;31856;-35.404;149.120;2022-10-16T19:05:32;0.68;;;0.40;;
46122;SDS011;31856;-35.404;149.120;2022-10-16T19:08:02;0.35;;;0.35;;
46122;SDS011;31856;-35.404;149.120;2022-10-16T19:10:35;2.47;;;1.58;;
46122;SDS011;31856;-35.404;149.120;2022-10-16T19:13:07;0.70;;;0.40;;
46122;SDS011;31856;-35.404;149.120;2022-10-16T19:15:41;0.82;;;0.40;;
46122;SDS011;31856;-35.404;149.120;2022-10-16T19:20:53;0.50;;;0.40;;
46122;SDS011;31856;-35.404;149.120;2022-10-16T19:23:24;0.55;;;0.40;;
46122;SDS011;31856;-35.404;149.120;2022-10-16T19:25:55;0.45;;;0.40;;
46122;SDS011;31856;-35.404;149.120;2022-10-16T19:28:25;0.60;;;0.47;;
46122;SDS011;31856;-35.404;149.120;2022-10-16T19:30:56;0.32;;;0.32;;
46122;SDS011;31856;-35.404;149.120;2022-10-16T19:33:30;0.70;;;0.50;;
46122;SDS011;31856;-35.404;149.120;2022-10-16T19:36:14;0.45;;;0.40;;
46122;SDS011;31856;-35.404;149.120;2022-10-16T19:38:45;0.60;;;0.50;;
46122;SDS011;31856;-35.404;149.120;2022-10-16T19:41:16;1.58;;;1.05;;
46122;SDS011;31856;-35.404;149.120;2022-10-16T19:43:47;0.50;;;0.40;;
46122;SDS011;31856;-35.404;149.120;2022-10-16T19:46:18;0.63;;;0.50;;
46122;SDS011;31856;-35.404;149.120;2022-10-16T19:48:52;0.70;;;0.60;;
46122;SDS011;31856;-35.404;149.120;2022-10-16T19:51:24;0.52;;;0.43;;
46122;SDS011;31856;-35.404;149.120;2022-10-16T19:53:59;0.80;;;0.68;;
46122;SDS011;31856;-35.404;149.120;2022-10-16T19:56:30;0.80;;;0.52;;
46122;SDS011;31856;-35.404;149.120;2022-10-16T19:59:00;0.70;;;0.60;;
46122;SDS011;31856;-35.404;149.120;2022-10-16T20:01:30;1.33;;;0.63;;
46122;SDS011;31856;-35.404;149.120;2022-10-16T20:04:01;1.35;;;0.60;;
46122;SDS011;31856;-35.404;149.120;2022-10-16T20:06:31;1.40;;;0.55;;
46122;SDS011;31856;-35.404;149.120;2022-10-16T21:17:12;2.50;;;1.17;;
46122;SDS011;31856;-35.404;149.120;2022-10-16T21:26:32;3.97;;;1.20;;
46122;SDS011;31856;-35.404;149.120;2022-10-16T21:39:36;1.90;;;1.30;;
46122;SDS011;31856;-35.404;149.120;2022-10-16T21:42:22;2.53;;;1.60;;
46122;SDS011;31856;-35.404;149.120;2022-10-16T21:45:03;1.55;;;1.05;;
46122;SDS011;31856;-35.404;149.120;2022-10-16T21:47:33;2.33;;;1.58;;
46122;SDS011;31856;-35.404;149.120;2022-10-16T21:52:57;2.65;;;1.20;;
46122;SDS011;31856;-35.404;149.120;2022-10-16T21:55:28;2.15;;;1.30;;
46122;SDS011;31856;-35.404;149.120;2022-10-16T21:57:59;1.52;;;1.10;;
46122;SDS011;31856;-35.404;149.120;2022-10-16T22:00:31;2.63;;;1.30;;
46122;SDS011;31856;-35.404;149.120;2022-10-16T22:03:17;2.97;;;1.20;;
46122;SDS011;31856;-35.404;149.120;2022-10-16T22:09:07;3.20;;;1.20;;
46122;SDS011;31856;-35.404;149.120;2022-10-16T23:12:30;1.80;;;0.88;;
46122;SDS011;31856;-35.404;149.120;2022-10-16T23:15:01;2.08;;;0.90;;
46122;SDS011;31856;-35.404;149.120;2022-10-16T23:17:31;2.35;;;1.23;;
46122;SDS011;31856;-35.404;149.120;2022-10-16T23:20:02;1.33;;;0.90;;
46122;SDS011;31856;-35.404;149.120;2022-10-16T23:22:32;2.97;;;1.20;;
46122;SDS011;31856;-35.404;149.120;2022-10-16T23:25:05;1.83;;;1.00;;
46122;SDS011;31856;-35.404;149.120;2022-10-16T23:27:39;4.22;;;1.55;;
46122;SDS011;31856;-35.404;149.120;2022-10-16T23:30:09;2.75;;;1.00;;
46122;SDS011;31856;-35.404;149.120;2022-10-16T23:32:40;1.83;;;1.17;;
46122;SDS011;31856;-35.404;149.120;2022-10-16T23:35:10;1.77;;;0.90;;
46122;SDS011;31856;-35.404;149.120;2022-10-16T23:37:40;3.67;;;1.00;;
46122;SDS011;31856;-35.404;149.120;2022-10-16T23:40:10;7.18;;;1.75;;
46122;SDS011;31856;-35.404;149.120;2022-10-16T23:42:40;5.10;;;1.40;;
46122;SDS011;31856;-35.404;149.120;2022-10-16T23:45:10;3.35;;;1.10;;
46122;SDS011;31856;-35.404;149.120;2022-10-16T23:47:40;1.63;;;0.93;;
46122;SDS011;31856;-35.404;149.120;2022-10-16T23:50:10;1.15;;;0.80;;
46122;SDS011;31856;-35.404;149.120;2022-10-16T23:52:40;2.45;;;1.33;;
46122;SDS011;31856;-35.404;149.120;2022-10-16T23:55:10;2.05;;;0.88;;
46122;SDS011;31856;-35.404;149.120;2022-10-16T23:57:40;1.80;;;1.10;;
